Terminal Aerodrome Forecast
Issued by NWS Houston/Galveston, TX

Home | Current Version | Previous Version | Text Only | Print | Product List | Glossary On
Versions: 1 2 3 4 5 6 7 8 9 10 11 12 13 14 15 16 17 18 19 20 21 22 23 24 25 26 27 28 29 30 31 32 33 34 35 36 37 38 39 40 41
000
FTUS44 KHGX 291137
TAFCLL
TAF
KCLL 291137Z 2912/3012 00000KT 6SM BR OVC004
     FM291400 19005KT P6SM SCT015 SCT250
     FM292100 15007KT P6SM FEW060
     FM300200 14005KT P6SM SCT090=

USA.gov is the U.S. government's official web portal to all federal, state and local government web resources and services.